Terminal Aerodrome Forecast
Issued by NWS Mt. Holly, NJ

Home | Current Version | Previous Version | Text Only | Print | Product List | Glossary On
Versions: 1 2 3 4 5 6 7 8 9 10 11 12 13 14 15 16 17 18 19 20 21 22 23 24 25
735
FTUS41 KPHI 272104 AAC
TAFPHL
TAF AMD
KPHL 272104Z 2721/2824 28011KT P6SM SCT070
     FM272300 27008KT P6SM SCT120
     FM280600 30004KT P6SM SKC
     FM281500 29009G17KT P6SM SCT040
     FM282200 26007KT P6SM SCT060=

USA.gov is the U.S. government's official web portal to all federal, state and local government web resources and services.